Tuesday, January 16, 2018, 6:54 AM EST
Back to Local

KJYO, Leesburg / Godfrey

Location: Leesburg, VA, United States Lat: 39.083
Local Time: 6:54 AM EST (11:54 GMT) Lon: -77.567
Time Zone: US/Eastern Elev: 390 ft

Show me the last for .
Show Decoded

2018-01-16 06:35 METAR KJYO 161135Z AUTO 20003KT 10SM CLR M02/M03 A3046 RMK AO2 =
2018-01-16 06:15 METAR KJYO 161115Z AUTO 20003KT 10SM SCT110 M02/M02 A3046 RMK AO2 =
2018-01-16 05:55 METAR KJYO 161055Z AUTO 00000KT 10SM SCT010 BKN110 M02/M02 A3045 RMK AO2 =
2018-01-16 05:35 METAR KJYO 161035Z AUTO 00000KT 10SM BKN010 OVC095 M02/M02 A3045 RMK AO2 =
2018-01-16 05:15 METAR KJYO 161015Z AUTO 00000KT 10SM OVC010 M02/M02 A3044 RMK AO2 =
2018-01-16 04:55 METAR KJYO 160955Z AUTO 00000KT 10SM OVC010 M01/M03 A3044 RMK AO2 =
2018-01-16 04:35 METAR KJYO 160935Z AUTO 00000KT 10SM OVC010 M02/M03 A3044 RMK AO2 =
2018-01-16 04:15 METAR KJYO 160915Z AUTO 00000KT 10SM OVC010 M02/M02 A3044 RMK AO2 =
2018-01-16 03:55 METAR KJYO 160855Z AUTO 20003KT 10SM OVC010 M02/M02 A3045 RMK AO2 =
2018-01-16 03:35 METAR KJYO 160835Z AUTO 00000KT 10SM OVC010 M02/M02 A3044 RMK AO2 =
2018-01-16 03:15 METAR KJYO 160815Z AUTO 18003KT 10SM OVC008 M02/M02 A3044 RMK AO2 =
2018-01-16 02:55 METAR KJYO 160755Z AUTO 00000KT 10SM OVC008 M02/M02 A3045 RMK AO2 =
2018-01-16 02:35 METAR KJYO 160735Z AUTO 00000KT 7SM OVC008 M02/M02 A3045 RMK AO2 =
2018-01-16 02:15 METAR KJYO 160715Z AUTO 21003KT 7SM OVC008 M02/M02 A3045 RMK AO2 =
2018-01-16 01:55 METAR KJYO 160655Z AUTO 00000KT 7SM OVC008 M02/M02 A3045 RMK AO2 =
2018-01-16 01:35 METAR KJYO 160635Z AUTO 21003KT 7SM OVC006 M02/M02 A3044 RMK AO2 =
2018-01-16 01:15 METAR KJYO 160615Z AUTO 19004KT 7SM OVC006 M02/M02 A3044 RMK AO2 =
2018-01-16 00:55 METAR KJYO 160555Z AUTO 18005KT 10SM OVC006 M02/M03 A3045 RMK AO2 =
2018-01-16 00:30 METAR KJYO 160530Z AUTO 19004KT 10SM BKN006 M03/M04 A3046 RMK AO2 =
2018-01-16 00:15 METAR KJYO 160515Z AUTO 00000KT 10SM SCT008 SCT080 M03/M05 A3046 RMK AO2 =
2018-01-15 23:55 METAR KJYO 160455Z AUTO 00000KT 10SM SCT008 SCT080 M03/M05 A3046 RMK AO2 =
2018-01-15 23:35 METAR KJYO 160435Z AUTO 00000KT 10SM SCT009 SCT080 M03/M05 A3047 RMK AO2 =
2018-01-15 23:15 METAR KJYO 160415Z AUTO 00000KT 10SM BKN009 M03/M05 A3048 RMK AO2 =
2018-01-15 22:55 METAR KJYO 160355Z AUTO 00000KT 10SM BKN011 BKN065 OVC100 M03/M05 A3049 RMK AO2
                 =
2018-01-15 22:35 METAR KJYO 160335Z AUTO 00000KT 10SM SCT013 SCT065 BKN100 M03/M04 A3049 RMK AO2
                 =
2018-01-15 22:15 METAR KJYO 160315Z AUTO 00000KT 10SM SCT015 SCT120 M03/M05 A3047 RMK AO2 =
2018-01-15 21:55 METAR KJYO 160255Z AUTO 00000KT 10SM SCT015 M03/M06 A3047 RMK AO2 =
2018-01-15 21:35 METAR KJYO 160235Z AUTO 11004KT 10SM SCT017 M03/M06 A3047 RMK AO2 =
2018-01-15 21:15 METAR KJYO 160215Z AUTO 00000KT 10SM SCT019 M03/M06 A3049 RMK AO2 =
2018-01-15 20:55 METAR KJYO 160155Z AUTO 00000KT 10SM SCT020 M03/M06 A3048 RMK AO2 =
2018-01-15 20:35 METAR KJYO 160135Z AUTO 00000KT 10SM BKN020 M03/M06 A3049 RMK AO2 =
2018-01-15 20:15 METAR KJYO 160115Z AUTO 00000KT 10SM SCT020 M04/M06 A3049 RMK AO2 =
2018-01-15 19:55 METAR KJYO 160055Z AUTO 00000KT 10SM CLR M03/M06 A3048 RMK AO2 =
2018-01-15 19:35 METAR KJYO 160035Z AUTO 00000KT 10SM CLR M03/M06 A3049 RMK AO2 =
2018-01-15 19:15 METAR KJYO 160015Z AUTO 00000KT 10SM CLR M02/M06 A3048 RMK AO2 =
2018-01-15 18:55 METAR KJYO 152355Z AUTO 00000KT 10SM CLR M02/M06 A3048 RMK AO2 =
2018-01-15 18:35 METAR KJYO 152335Z AUTO 00000KT 10SM CLR M02/M06 A3049 RMK AO2 =
2018-01-15 18:15 METAR KJYO 152315Z AUTO 00000KT 10SM CLR M02/M05 A3049 RMK AO2 =
2018-01-15 17:55 METAR KJYO 152255Z AUTO 00000KT 10SM CLR M02/M06 A3049 RMK AO2 =
2018-01-15 17:35 METAR KJYO 152235Z AUTO 00000KT 10SM CLR M01/M06 A3047 RMK AO2 =
2018-01-15 17:15 METAR KJYO 152215Z AUTO 00000KT 10SM CLR M01/M06 A3048 RMK AO2 =
2018-01-15 16:55 METAR KJYO 152155Z AUTO 00000KT 10SM CLR M01/M06 A3049 RMK AO2 =
2018-01-15 16:35 METAR KJYO 152135Z AUTO 00000KT 10SM CLR 00/M06 A3048 RMK AO2 =
2018-01-15 16:15 METAR KJYO 152115Z AUTO 00000KT 10SM CLR 00/M06 A3048 RMK AO2 =
2018-01-15 15:55 METAR KJYO 152055Z AUTO 00000KT 10SM CLR 00/M06 A3048 RMK AO2 =
2018-01-15 15:35 METAR KJYO 152035Z AUTO 00000KT 10SM CLR 00/M06 A3047 RMK AO2 =
2018-01-15 15:15 METAR KJYO 152015Z AUTO 10004KT 10SM CLR 00/M06 A3046 RMK AO2 =
2018-01-15 14:55 METAR KJYO 151955Z AUTO 05004KT 10SM CLR 00/M06 A3046 RMK AO2 =
2018-01-15 14:35 METAR KJYO 151935Z AUTO 00000KT 10SM CLR M01/M06 A3047 RMK AO2 =
2018-01-15 14:15 METAR KJYO 151915Z AUTO 08005KT 10SM SCT021 M01/M07 A3048 RMK AO2 =
2018-01-15 13:55 METAR KJYO 151855Z AUTO 00000KT 10SM BKN021 M01/M07 A3049 RMK AO2 =
2018-01-15 13:35 METAR KJYO 151835Z AUTO 04003KT 10SM OVC021 M01/M07 A3049 RMK AO2 =
2018-01-15 13:15 METAR KJYO 151815Z AUTO 04003KT 10SM OVC023 M01/M07 A3050 RMK AO2 =
2018-01-15 12:55 METAR KJYO 151755Z AUTO 00000KT 10SM OVC023 M02/M07 A3052 RMK AO2 =
2018-01-15 12:35 METAR KJYO 151735Z AUTO 00000KT 10SM OVC023 M02/M08 A3054 RMK AO2 =
2018-01-15 12:15 METAR KJYO 151715Z AUTO 35004KT 10SM OVC025 M03/M08 A3056 RMK AO2 =
2018-01-15 11:55 METAR KJYO 151655Z AUTO 00000KT 10SM OVC023 M03/M08 A3058 RMK AO2 =
2018-01-15 11:35 METAR KJYO 151635Z AUTO 00000KT 10SM OVC023 M04/M09 A3059 RMK AO2 =
2018-01-15 11:15 METAR KJYO 151615Z AUTO 00000KT 10SM OVC025 M05/M10 A3060 RMK AO2 =
2018-01-15 10:55 METAR KJYO 151555Z AUTO 04003KT 10SM OVC025 M05/M10 A3061 RMK AO2 =
2018-01-15 10:35 METAR KJYO 151535Z AUTO 36004KT 10SM OVC027 M06/M10 A3062 RMK AO2 =
2018-01-15 10:15 METAR KJYO 151515Z AUTO 00000KT 10SM OVC025 M06/M11 A3063 RMK AO2 =
2018-01-15 09:55 METAR KJYO 151455Z AUTO 03003KT 10SM OVC025 M07/M11 A3063 RMK AO2 =
2018-01-15 09:35 METAR KJYO 151435Z AUTO 04004KT 10SM OVC025 M07/M12 A3062 RMK AO2 =
2018-01-15 09:15 METAR KJYO 151415Z AUTO 02003KT 10SM SCT025 M07/M12 A3062 RMK AO2 =
2018-01-15 08:55 METAR KJYO 151355Z AUTO 02006KT 10SM CLR M08/M12 A3062 RMK AO2 =
2018-01-15 08:35 METAR KJYO 151335Z AUTO 02007KT 10SM CLR M08/M12 A3061 RMK AO2 =
2018-01-15 08:15 METAR KJYO 151315Z AUTO 01005KT 10SM CLR M09/M12 A3061 RMK AO2 =
2018-01-15 07:55 METAR KJYO 151255Z AUTO 02005KT 10SM CLR M09/M12 A3060 RMK AO2 =
2018-01-15 07:35 METAR KJYO 151235Z AUTO 02005KT 10SM CLR M09/M12 A3060 RMK AO2 =
2018-01-15 07:15 METAR KJYO 151215Z AUTO 01006KT 10SM CLR M09/M12 A3061 RMK AO2 =
2018-01-15 06:55 METAR KJYO 151155Z AUTO 01006KT 10SM CLR M10/M12 A3060 RMK AO2 =

Support USWX by starting your Amazon purchase here.